createdAt,value
2022-09-12T00:01:13.063Z,71.74
2022-09-12T00:06:23.458Z,71.74
2022-09-12T00:11:31.256Z,71.83
2022-09-12T00:16:40.195Z,71.68
2022-09-12T00:21:48.505Z,71.78
2022-09-12T00:26:56.576Z,71.51
2022-09-12T00:32:05.094Z,71.77
2022-09-12T00:37:13.215Z,71.73
2022-09-12T00:42:21.304Z,71.59
2022-09-12T00:47:31.422Z,71.56
2022-09-12T00:52:43.040Z,71.75
2022-09-12T00:57:55.895Z,71.95
2022-09-12T01:03:06.888Z,71.81
2022-09-12T01:08:14.911Z,71.88
2022-09-12T01:13:22.909Z,72.08
2022-09-12T01:18:42.563Z,71.94
2022-09-12T01:24:32.767Z,71.80
2022-09-12T01:30:07.037Z,72.27
2022-09-12T01:35:23.278Z,71.99
2022-09-12T01:40:37.007Z,72.07
2022-09-12T01:45:55.605Z,71.88
2022-09-12T01:51:12.255Z,72.17
2022-09-12T01:56:23.812Z,72.50
2022-09-12T02:01:34.623Z,72.48
2022-09-12T02:06:47.653Z,72.37
2022-09-12T02:11:59.669Z,72.18
2022-09-12T02:17:12.470Z,72.05
2022-09-12T02:22:24.414Z,72.34
2022-09-12T02:27:39.822Z,72.23
2022-09-12T02:33:00.081Z,72.44
2022-09-12T02:38:12.109Z,72.35
2022-09-12T02:43:20.193Z,72.42
2022-09-12T02:48:33.381Z,72.65
2022-09-12T02:53:41.202Z,72.65
2022-09-12T02:58:50.316Z,72.66
2022-09-12T03:04:13.021Z,72.45
2022-09-12T03:09:29.950Z,72.61
2022-09-12T03:15:01.987Z,72.77
2022-09-12T03:20:18.530Z,72.79
2022-09-12T03:25:30.235Z,72.79
2022-09-12T03:30:43.705Z,72.83
2022-09-12T03:35:52.486Z,72.54
2022-09-12T03:41:00.468Z,72.70
2022-09-12T03:46:08.624Z,72.81
2022-09-12T03:51:16.508Z,72.84
2022-09-12T03:56:24.776Z,72.79
2022-09-12T04:01:33.682Z,72.76
2022-09-12T04:06:42.406Z,72.83
2022-09-12T04:11:50.541Z,72.97
2022-09-12T04:16:58.525Z,72.68
2022-09-12T04:22:06.751Z,72.91
2022-09-12T04:27:14.758Z,72.71
2022-09-12T04:32:22.758Z,72.78
2022-09-12T04:37:31.103Z,72.66
2022-09-12T04:42:39.256Z,72.81
2022-09-12T04:47:47.962Z,73.05
2022-09-12T04:52:57.147Z,72.81
2022-09-12T04:58:05.533Z,72.86
2022-09-12T05:03:13.703Z,73.20
2022-09-12T05:08:22.063Z,72.99
2022-09-12T05:13:30.253Z,72.92
2022-09-12T05:18:39.791Z,73.05
2022-09-12T05:23:49.395Z,72.90
2022-09-12T05:28:58.269Z,73.00
2022-09-12T05:34:07.510Z,73.08
2022-09-12T05:39:14.983Z,73.04
2022-09-12T05:44:23.127Z,72.94
2022-09-12T05:49:54.131Z,72.61
2022-09-12T05:55:02.394Z,72.89
2022-09-12T06:00:13.405Z,72.68
2022-09-12T06:05:21.493Z,72.69
2022-09-12T06:10:30.060Z,72.73
2022-09-12T06:15:38.176Z,72.71
2022-09-12T06:20:46.269Z,72.57
2022-09-12T06:25:54.431Z,72.35
2022-09-12T06:31:08.096Z,72.63
2022-09-12T06:36:18.425Z,72.54
2022-09-12T06:41:27.696Z,72.50
2022-09-12T06:46:35.946Z,72.43
2022-09-12T06:51:44.936Z,72.71
2022-09-12T06:56:52.957Z,72.63
2022-09-12T07:02:02.249Z,72.47
2022-09-12T07:07:10.631Z,72.43
2022-09-12T07:12:18.919Z,72.42
2022-09-12T07:17:27.395Z,72.55
2022-09-12T07:22:35.835Z,72.58
2022-09-12T07:27:46.207Z,72.53
2022-09-12T07:32:58.241Z,72.38
2022-09-12T07:38:06.505Z,72.45
2022-09-12T07:43:14.998Z,72.41
2022-09-12T07:48:23.364Z,72.49
2022-09-12T07:53:37.292Z,72.48
2022-09-12T07:58:46.270Z,72.71
2022-09-12T08:03:59.178Z,72.70
2022-09-12T08:09:08.157Z,72.38
2022-09-12T08:14:18.055Z,72.29
2022-09-12T08:19:26.100Z,72.27
2022-09-12T08:24:34.080Z,72.12
2022-09-12T08:29:42.017Z,72.17
2022-09-12T08:34:50.060Z,72.06
2022-09-12T08:39:58.348Z,72.03
2022-09-12T08:45:24.628Z,71.70
2022-09-12T08:50:32.901Z,71.61
2022-09-12T08:55:42.947Z,71.40
2022-09-12T09:00:59.834Z,71.51
2022-09-12T09:06:23.595Z,71.36
2022-09-12T09:11:55.871Z,71.16
2022-09-12T09:17:02.433Z,71.18
2022-09-12T09:22:16.366Z,71.00
2022-09-12T09:27:40.872Z,70.75
2022-09-12T09:32:53.227Z,70.94
2022-09-12T09:38:14.645Z,70.62
2022-09-12T09:43:27.907Z,70.53
2022-09-12T09:48:37.421Z,70.64
2022-09-12T09:53:52.000Z,70.53
2022-09-12T09:59:10.473Z,70.43
2022-09-12T10:04:24.210Z,70.33
2022-09-12T10:09:34.346Z,70.59
2022-09-12T10:14:43.943Z,70.52
2022-09-12T10:20:10.911Z,70.32
2022-09-12T10:25:27.550Z,70.17
2022-09-12T10:30:35.630Z,69.99
2022-09-12T10:35:51.592Z,69.84
2022-09-12T10:41:05.643Z,69.78
2022-09-12T10:46:33.419Z,69.67
2022-09-12T10:51:41.689Z,69.47
2022-09-12T10:57:05.229Z,69.52
2022-09-12T11:02:26.613Z,69.54
2022-09-12T11:07:55.449Z,69.42
2022-09-12T11:13:17.118Z,69.52
2022-09-12T11:18:52.517Z,69.61
2022-09-12T11:24:31.059Z,69.68
2022-09-12T11:29:51.554Z,69.70
2022-09-12T11:35:16.581Z,69.44
2022-09-12T11:40:34.134Z,69.30
2022-09-12T11:45:46.140Z,69.47
2022-09-12T11:50:53.044Z,69.33
2022-09-12T11:56:07.826Z,69.41
2022-09-12T12:01:22.820Z,69.45
2022-09-12T12:06:33.329Z,69.23
2022-09-12T12:11:45.514Z,69.19
2022-09-12T12:16:53.957Z,68.86
2022-09-12T12:22:10.876Z,69.06
2022-09-12T12:27:47.026Z,68.99
2022-09-12T12:33:00.904Z,68.85
2022-09-12T12:38:29.010Z,68.80
2022-09-12T12:43:37.020Z,68.71
2022-09-12T12:49:12.710Z,68.47
2022-09-12T12:54:56.455Z,68.36
2022-09-12T13:00:09.193Z,68.20
2022-09-12T13:05:24.889Z,68.22
2022-09-12T13:10:34.349Z,68.14
2022-09-12T13:15:55.909Z,68.11
2022-09-12T13:21:12.586Z,68.10
2022-09-12T13:26:26.933Z,67.93
2022-09-12T13:31:35.271Z,67.91
2022-09-12T13:36:58.731Z,67.74
2022-09-12T13:42:32.584Z,67.64
2022-09-12T13:47:43.292Z,67.30
2022-09-12T13:52:54.867Z,66.94
2022-09-12T13:58:05.238Z,66.81
2022-09-12T14:03:47.651Z,66.64
2022-09-12T14:08:55.417Z,66.49
2022-09-12T14:14:08.306Z,66.43
2022-09-12T14:19:17.757Z,66.30
2022-09-12T14:24:26.249Z,65.90
2022-09-12T14:29:35.049Z,65.55
2022-09-12T14:34:43.038Z,65.34
2022-09-12T14:39:51.283Z,65.05
2022-09-12T14:45:03.485Z,64.99
2022-09-12T14:50:21.350Z,64.75
2022-09-12T14:55:34.031Z,64.71
2022-09-12T15:00:58.133Z,64.72
2022-09-12T15:06:08.948Z,64.69
2022-09-12T15:11:20.193Z,64.62
2022-09-12T15:16:28.408Z,64.58
2022-09-12T15:21:36.755Z,64.31
2022-09-12T15:26:44.748Z,64.28
2022-09-12T15:31:54.158Z,64.41
2022-09-12T15:37:01.176Z,64.31
2022-09-12T15:42:10.395Z,64.24
2022-09-12T15:47:18.387Z,64.42
2022-09-12T15:52:26.142Z,64.39
2022-09-12T15:57:34.189Z,64.28
2022-09-12T16:02:42.472Z,64.20
2022-09-12T16:07:52.436Z,64.28
2022-09-12T16:13:01.131Z,64.35
2022-09-12T16:18:09.238Z,64.31
2022-09-12T16:23:17.554Z,64.46
2022-09-12T16:28:26.661Z,64.44
2022-09-12T16:33:35.731Z,64.24
2022-09-12T16:38:48.110Z,64.25
2022-09-12T16:43:56.919Z,64.20
2022-09-12T16:49:06.332Z,64.32
2022-09-12T16:54:14.860Z,64.37
2022-09-12T16:59:23.106Z,64.39
2022-09-12T17:04:31.118Z,64.43
2022-09-12T17:09:39.596Z,64.33
2022-09-12T17:14:48.095Z,64.19
2022-09-12T17:19:55.432Z,63.69
2022-09-12T17:25:03.652Z,63.25
2022-09-12T17:30:13.562Z,62.95
2022-09-12T17:35:22.125Z,62.50
2022-09-12T17:40:55.653Z,62.34
2022-09-12T17:46:01.080Z,61.93
2022-09-12T17:51:14.630Z,61.63
2022-09-12T17:56:22.587Z,61.41
2022-09-12T18:01:49.838Z,61.73
2022-09-12T18:07:00.678Z,61.47
2022-09-12T18:12:09.705Z,61.54
2022-09-12T18:17:17.153Z,61.58
2022-09-12T18:22:25.421Z,61.86
2022-09-12T18:27:33.354Z,61.88
2022-09-12T18:32:41.919Z,62.34
2022-09-12T18:37:50.209Z,62.24
2022-09-12T18:42:58.105Z,62.55
2022-09-12T18:48:06.864Z,62.55
2022-09-12T18:53:15.154Z,62.28
2022-09-12T18:58:23.292Z,62.52
2022-09-12T19:03:31.757Z,62.61
2022-09-12T19:08:39.970Z,62.77
2022-09-12T19:13:50.688Z,62.96
2022-09-12T19:18:59.922Z,63.18
2022-09-12T19:24:11.923Z,63.25
2022-09-12T19:29:20.015Z,63.52
2022-09-12T19:34:28.771Z,63.85
2022-09-12T19:39:36.740Z,64.32
2022-09-12T19:44:45.199Z,64.32
2022-09-12T19:49:54.026Z,64.47
2022-09-12T19:55:02.040Z,64.95
2022-09-12T20:00:10.960Z,65.41
2022-09-12T20:05:20.105Z,65.57
2022-09-12T20:10:28.445Z,65.73
2022-09-12T20:15:36.603Z,65.70
2022-09-12T20:20:44.537Z,65.71
2022-09-12T20:25:52.603Z,65.38
2022-09-12T20:31:04.244Z,65.60
2022-09-12T20:36:15.040Z,65.85
2022-09-12T20:41:23.652Z,65.81
2022-09-12T20:46:32.361Z,66.31
2022-09-12T20:51:40.964Z,66.16
2022-09-12T20:56:49.017Z,66.42
2022-09-12T21:01:57.397Z,66.41
2022-09-12T21:07:05.593Z,66.46
2022-09-12T21:12:13.678Z,66.45
2022-09-12T21:17:20.917Z,66.30
2022-09-12T21:22:28.917Z,66.30
2022-09-12T21:27:37.022Z,66.15
2022-09-12T21:32:45.306Z,66.43
2022-09-12T21:37:54.870Z,66.78
2022-09-12T21:43:02.860Z,66.77
2022-09-12T21:48:11.413Z,66.93
2022-09-12T21:53:19.397Z,67.19
2022-09-12T21:58:28.715Z,67.19
2022-09-12T22:03:36.891Z,67.08
2022-09-12T22:08:44.990Z,67.20
2022-09-12T22:13:53.190Z,67.08
2022-09-12T22:19:01.629Z,67.12
2022-09-12T22:24:29.713Z,66.98
2022-09-12T22:29:38.859Z,66.88
2022-09-12T22:34:46.978Z,67.00
2022-09-12T22:39:55.620Z,66.68
2022-09-12T22:45:03.913Z,66.88
2022-09-12T22:50:12.663Z,66.74
2022-09-12T22:55:21.307Z,66.82
2022-09-12T23:00:30.116Z,66.74
2022-09-12T23:05:39.898Z,66.85
2022-09-12T23:10:48.019Z,66.79
2022-09-12T23:16:03.177Z,66.78
2022-09-12T23:21:12.473Z,66.91
2022-09-12T23:26:22.198Z,67.01
2022-09-12T23:31:31.347Z,66.69
2022-09-12T23:36:39.566Z,66.85
2022-09-12T23:41:47.509Z,66.84
2022-09-12T23:46:55.601Z,67.01
2022-09-12T23:52:04.234Z,67.00
2022-09-12T23:57:12.308Z,66.95
